createdAt,value
2023-03-04T00:08:35.165Z,91.62
2023-03-04T00:18:41.129Z,92.83
2023-03-04T00:28:47.682Z,93.28
2023-03-04T00:38:51.874Z,93.66
2023-03-04T00:48:57.602Z,94.31
2023-03-04T00:59:03.322Z,94.56
2023-03-04T01:09:09.551Z,94.76
2023-03-04T01:19:15.492Z,94.90
2023-03-04T01:29:21.166Z,95.36
2023-03-04T01:39:26.754Z,95.56
2023-03-04T01:49:32.575Z,95.40
2023-03-04T01:59:39.618Z,95.49
2023-03-04T02:09:45.849Z,95.26
2023-03-04T02:19:52.400Z,94.89
2023-03-04T02:29:58.215Z,94.70
2023-03-04T02:40:04.344Z,94.44
2023-03-04T02:50:12.469Z,94.07
2023-03-04T03:00:18.415Z,93.95
2023-03-04T03:10:24.449Z,93.48
2023-03-04T03:20:30.152Z,93.27
2023-03-04T03:30:36.048Z,93.04
2023-03-04T03:40:42.271Z,92.94
2023-03-04T03:50:47.942Z,92.75
2023-03-04T04:00:55.850Z,92.41
2023-03-04T04:11:02.780Z,92.26
2023-03-04T04:21:09.098Z,91.99
2023-03-04T04:31:14.879Z,91.67
2023-03-04T04:41:23.822Z,91.39
2023-03-04T04:51:29.601Z,91.10
2023-03-04T05:01:35.554Z,90.89
2023-03-04T05:11:41.232Z,90.50
2023-03-04T05:21:47.113Z,90.41
2023-03-04T05:31:52.785Z,90.12
2023-03-04T05:41:58.413Z,90.02
2023-03-04T05:52:04.119Z,89.82
2023-03-04T06:02:09.874Z,89.61
2023-03-04T06:12:15.711Z,89.47
2023-03-04T06:22:21.323Z,89.30
2023-03-04T06:32:27.149Z,89.23
2023-03-04T06:42:32.811Z,89.15
2023-03-04T06:52:38.484Z,89.14
2023-03-04T07:02:44.249Z,89.21
2023-03-04T07:12:50.015Z,89.16
2023-03-04T07:22:55.887Z,88.95
2023-03-04T07:33:01.476Z,89.04
2023-03-04T07:43:07.490Z,88.94
2023-03-04T07:53:13.122Z,88.92
2023-03-04T08:03:18.906Z,88.80
2023-03-04T08:13:25.913Z,88.73
2023-03-04T08:23:31.651Z,88.61
2023-03-04T08:33:37.586Z,88.44
2023-03-04T08:43:43.531Z,88.15
2023-03-04T08:53:49.185Z,87.67
2023-03-04T09:03:54.854Z,87.63
2023-03-04T09:14:00.560Z,87.57
2023-03-04T09:24:06.651Z,87.64
2023-03-04T09:34:12.488Z,87.52
2023-03-04T09:44:26.915Z,87.57
2023-03-04T09:55:04.993Z,87.57
2023-03-04T10:05:15.842Z,87.56
2023-03-04T10:15:29.418Z,87.68
2023-03-04T10:25:36.234Z,87.77
2023-03-04T10:35:40.356Z,87.77
2023-03-04T10:45:47.052Z,88.03
2023-03-04T10:55:51.473Z,87.86
2023-03-04T11:06:12.010Z,87.57
2023-03-04T11:16:28.736Z,87.30
2023-03-04T11:26:40.544Z,87.62
2023-03-04T11:36:57.318Z,87.48
2023-03-04T11:47:08.623Z,87.67
2023-03-04T11:57:29.975Z,87.86
2023-03-04T12:07:53.423Z,88.20
2023-03-04T12:18:16.202Z,88.46
2023-03-04T12:28:35.920Z,87.57
2023-03-04T12:38:59.065Z,87.09
2023-03-04T12:49:27.245Z,87.12
2023-03-04T12:59:38.792Z,86.71
2023-03-04T13:09:52.740Z,87.17
2023-03-04T13:20:12.790Z,87.29
2023-03-04T13:31:06.786Z,86.68
2023-03-04T13:41:17.168Z,85.93
2023-03-04T13:51:30.069Z,85.67
2023-03-04T14:01:38.190Z,85.70
2023-03-04T14:11:45.168Z,85.79
2023-03-04T14:21:50.943Z,86.17
2023-03-04T14:31:57.773Z,85.90
2023-03-04T14:42:04.531Z,86.26
2023-03-04T14:52:23.677Z,87.10
2023-03-04T15:02:33.239Z,87.23
2023-03-04T15:12:39.713Z,87.30
2023-03-04T15:33:15.853Z,87.73
2023-03-04T15:43:23.475Z,87.83
2023-03-04T15:53:33.762Z,87.79
2023-03-04T16:03:39.489Z,87.16
2023-03-04T16:13:45.247Z,87.19
2023-03-04T16:23:52.896Z,87.31
2023-03-04T16:33:58.540Z,87.69
2023-03-04T16:44:04.345Z,88.11
2023-03-04T16:54:14.704Z,88.73
2023-03-04T17:04:20.451Z,89.03
2023-03-04T17:14:26.191Z,89.73
2023-03-04T17:24:32.454Z,89.87
2023-03-04T17:34:38.095Z,89.75
2023-03-04T17:44:44.275Z,90.24
2023-03-04T17:54:50.156Z,90.61
2023-03-04T18:04:55.821Z,90.46
2023-03-04T18:15:01.567Z,88.93
2023-03-04T18:25:10.698Z,88.27
2023-03-04T18:35:16.557Z,87.87
2023-03-04T18:45:22.534Z,87.12
2023-03-04T18:55:28.383Z,86.23
2023-03-04T19:05:35.369Z,85.10
2023-03-04T19:15:41.048Z,83.97
2023-03-04T19:25:47.449Z,82.47
2023-03-04T19:35:53.417Z,80.95
2023-03-04T19:45:59.411Z,77.99
2023-03-04T19:56:05.309Z,75.86
2023-03-04T20:06:11.641Z,74.53
2023-03-04T20:16:17.746Z,74.20
2023-03-04T20:26:23.727Z,73.95
2023-03-04T20:36:31.059Z,74.13
2023-03-04T20:46:41.066Z,74.34
2023-03-04T20:56:47.338Z,75.08
2023-03-04T21:06:53.614Z,75.48
2023-03-04T21:17:00.988Z,75.67
2023-03-04T21:27:08.075Z,76.00
2023-03-04T21:37:13.985Z,76.64
2023-03-04T21:47:20.054Z,77.18
2023-03-04T21:57:25.737Z,78.06
2023-03-04T22:07:31.341Z,78.69
2023-03-04T22:17:35.956Z,79.09
2023-03-04T22:27:41.831Z,79.55
2023-03-04T22:37:47.829Z,79.89
2023-03-04T22:47:54.794Z,80.41
2023-03-04T22:58:00.600Z,80.60
2023-03-04T23:08:06.613Z,80.61
2023-03-04T23:18:12.353Z,80.45
2023-03-04T23:28:18.018Z,80.45
2023-03-04T23:38:23.715Z,80.40
2023-03-04T23:48:29.531Z,80.79
2023-03-04T23:58:35.212Z,80.67
